sensor_id;sensor_type;location;lat;lon;timestamp;temperature;humidity
2973;DHT22;1496;51.404;7.232;2023-02-14T00:00:32;6.20;99.90
2973;DHT22;1496;51.404;7.232;2023-02-14T00:02:59;6.40;99.90
2973;DHT22;1496;51.404;7.232;2023-02-14T00:05:25;6.50;99.90
2973;DHT22;1496;51.404;7.232;2023-02-14T00:07:53;6.70;99.90
2973;DHT22;1496;51.404;7.232;2023-02-14T00:10:19;6.80;99.90
2973;DHT22;1496;51.404;7.232;2023-02-14T00:12:45;7.00;99.90
2973;DHT22;1496;51.404;7.232;2023-02-14T00:15:12;7.10;99.90
2973;DHT22;1496;51.404;7.232;2023-02-14T00:17:52;7.20;99.90
2973;DHT22;1496;51.404;7.232;2023-02-14T00:20:23;7.20;99.90
2973;DHT22;1496;51.404;7.232;2023-02-14T00:22:51;7.30;99.90
2973;DHT22;1496;51.404;7.232;2023-02-14T00:25:18;7.30;99.90
2973;DHT22;1496;51.404;7.232;2023-02-14T00:27:47;7.30;99.90
2973;DHT22;1496;51.404;7.232;2023-02-14T00:30:15;7.40;99.90
2973;DHT22;1496;51.404;7.232;2023-02-14T00:32:42;7.30;99.90
2973;DHT22;1496;51.404;7.232;2023-02-14T00:35:09;7.20;99.90
2973;DHT22;1496;51.404;7.232;2023-02-14T00:37:40;7.20;99.90
2973;DHT22;1496;51.404;7.232;2023-02-14T00:40:07;7.20;99.90
2973;DHT22;1496;51.404;7.232;2023-02-14T00:42:34;7.30;99.90
2973;DHT22;1496;51.404;7.232;2023-02-14T00:45:01;7.20;99.90
2973;DHT22;1496;51.404;7.232;2023-02-14T00:47:28;7.20;99.90
2973;DHT22;1496;51.404;7.232;2023-02-14T00:49:54;7.10;99.90
2973;DHT22;1496;51.404;7.232;2023-02-14T00:52:21;7.20;99.90
2973;DHT22;1496;51.404;7.232;2023-02-14T00:54:48;7.10;99.90
2973;DHT22;1496;51.404;7.232;2023-02-14T00:57:15;7.20;99.90
2973;DHT22;1496;51.404;7.232;2023-02-14T00:59:41;7.20;99.90
2973;DHT22;1496;51.404;7.232;2023-02-14T01:02:09;7.20;99.90
2973;DHT22;1496;51.404;7.232;2023-02-14T01:04:35;7.10;99.90
2973;DHT22;1496;51.404;7.232;2023-02-14T01:07:03;7.20;99.90
2973;DHT22;1496;51.404;7.232;2023-02-14T01:09:29;7.10;99.90
2973;DHT22;1496;51.404;7.232;2023-02-14T01:11:57;7.20;99.90
2973;DHT22;1496;51.404;7.232;2023-02-14T01:14:23;7.10;99.90
2973;DHT22;1496;51.404;7.232;2023-02-14T01:16:50;7.10;99.90
2973;DHT22;1496;51.404;7.232;2023-02-14T01:19:18;7.20;99.90
2973;DHT22;1496;51.404;7.232;2023-02-14T01:21:46;7.10;99.90
2973;DHT22;1496;51.404;7.232;2023-02-14T01:24:11;7.20;99.90
2973;DHT22;1496;51.404;7.232;2023-02-14T01:26:40;7.20;99.90
2973;DHT22;1496;51.404;7.232;2023-02-14T01:29:08;7.20;99.90
2973;DHT22;1496;51.404;7.232;2023-02-14T01:31:35;7.10;99.90
2973;DHT22;1496;51.404;7.232;2023-02-14T01:34:02;7.10;99.90
2973;DHT22;1496;51.404;7.232;2023-02-14T01:36:33;7.00;99.90
2973;DHT22;1496;51.404;7.232;2023-02-14T01:39:04;7.00;99.90
2973;DHT22;1496;51.404;7.232;2023-02-14T01:41:32;6.90;99.90
2973;DHT22;1496;51.404;7.232;2023-02-14T01:44:06;6.80;99.90
2973;DHT22;1496;51.404;7.232;2023-02-14T01:46:36;6.70;99.90
2973;DHT22;1496;51.404;7.232;2023-02-14T01:51:40;6.80;99.90
2973;DHT22;1496;51.404;7.232;2023-02-14T01:54:10;6.90;99.90
2973;DHT22;1496;51.404;7.232;2023-02-14T01:56:43;6.90;99.90
2973;DHT22;1496;51.404;7.232;2023-02-14T01:59:16;7.00;99.90
2973;DHT22;1496;51.404;7.232;2023-02-14T02:01:48;7.00;99.90
2973;DHT22;1496;51.404;7.232;2023-02-14T02:04:21;7.00;99.90
2973;DHT22;1496;51.404;7.232;2023-02-14T02:06:53;7.00;99.90
2973;DHT22;1496;51.404;7.232;2023-02-14T02:12:14;7.20;99.90
2973;DHT22;1496;51.404;7.232;2023-02-14T02:14:42;7.20;99.90
2973;DHT22;1496;51.404;7.232;2023-02-14T02:23:24;7.30;99.90
2973;DHT22;1496;51.404;7.232;2023-02-14T02:43:29;6.80;99.90
2973;DHT22;1496;51.404;7.232;2023-02-14T02:46:04;6.80;99.90
2973;DHT22;1496;51.404;7.232;2023-02-14T02:48:58;6.80;99.90
2973;DHT22;1496;51.404;7.232;2023-02-14T02:52:03;6.80;99.90
2973;DHT22;1496;51.404;7.232;2023-02-14T02:54:59;6.90;99.90
2973;DHT22;1496;51.404;7.232;2023-02-14T02:57:34;6.70;99.90
2973;DHT22;1496;51.404;7.232;2023-02-14T03:00:04;6.70;99.90
2973;DHT22;1496;51.404;7.232;2023-02-14T03:02:42;6.50;99.90
2973;DHT22;1496;51.404;7.232;2023-02-14T03:05:31;6.40;99.90
2973;DHT22;1496;51.404;7.232;2023-02-14T03:07:58;6.30;99.90
2973;DHT22;1496;51.404;7.232;2023-02-14T03:10:29;6.30;99.90
2973;DHT22;1496;51.404;7.232;2023-02-14T03:22:13;6.50;99.90
2973;DHT22;1496;51.404;7.232;2023-02-14T03:24:59;6.50;99.90
2973;DHT22;1496;51.404;7.232;2023-02-14T03:27:38;6.50;99.90
2973;DHT22;1496;51.404;7.232;2023-02-14T03:33:38;6.50;99.90
2973;DHT22;1496;51.404;7.232;2023-02-14T03:35:56;6.50;99.90
2973;DHT22;1496;51.404;7.232;2023-02-14T03:41:55;6.50;99.90
2973;DHT22;1496;51.404;7.232;2023-02-14T03:44:26;6.50;99.90
2973;DHT22;1496;51.404;7.232;2023-02-14T03:46:59;6.60;99.90
2973;DHT22;1496;51.404;7.232;2023-02-14T03:49:29;6.50;99.90
2973;DHT22;1496;51.404;7.232;2023-02-14T03:51:59;6.40;99.90
2973;DHT22;1496;51.404;7.232;2023-02-14T03:54:27;6.50;99.90
2973;DHT22;1496;51.404;7.232;2023-02-14T03:57:12;6.40;99.90
2973;DHT22;1496;51.404;7.232;2023-02-14T03:59:42;6.30;99.90
2973;DHT22;1496;51.404;7.232;2023-02-14T04:04:43;6.50;99.90
2973;DHT22;1496;51.404;7.232;2023-02-14T04:07:16;6.40;99.90
2973;DHT22;1496;51.404;7.232;2023-02-14T04:09:44;6.60;99.90
2973;DHT22;1496;51.404;7.232;2023-02-14T04:12:11;6.60;99.90
2973;DHT22;1496;51.404;7.232;2023-02-14T04:14:38;6.50;99.90
2973;DHT22;1496;51.404;7.232;2023-02-14T04:17:05;6.40;99.90
2973;DHT22;1496;51.404;7.232;2023-02-14T04:19:51;6.40;99.90
2973;DHT22;1496;51.404;7.232;2023-02-14T04:22:19;6.40;99.90
2973;DHT22;1496;51.404;7.232;2023-02-14T04:24:47;6.20;99.90
2973;DHT22;1496;51.404;7.232;2023-02-14T04:27:13;6.20;99.90
2973;DHT22;1496;51.404;7.232;2023-02-14T04:29:46;6.20;99.90
2973;DHT22;1496;51.404;7.232;2023-02-14T04:32:16;6.40;99.90
2973;DHT22;1496;51.404;7.232;2023-02-14T04:34:43;6.40;99.90
2973;DHT22;1496;51.404;7.232;2023-02-14T04:37:12;6.50;99.90
2973;DHT22;1496;51.404;7.232;2023-02-14T04:39:39;6.50;99.90
2973;DHT22;1496;51.404;7.232;2023-02-14T04:42:07;6.60;99.90
2973;DHT22;1496;51.404;7.232;2023-02-14T04:44:33;6.60;99.90
2973;DHT22;1496;51.404;7.232;2023-02-14T04:47:00;6.60;99.90
2973;DHT22;1496;51.404;7.232;2023-02-14T04:49:26;6.50;99.90
2973;DHT22;1496;51.404;7.232;2023-02-14T04:51:52;6.60;99.90
2973;DHT22;1496;51.404;7.232;2023-02-14T04:54:20;6.40;99.90
2973;DHT22;1496;51.404;7.232;2023-02-14T04:56:46;6.40;99.90
2973;DHT22;1496;51.404;7.232;2023-02-14T04:59:14;6.40;99.90
2973;DHT22;1496;51.404;7.232;2023-02-14T05:01:40;6.20;99.90
2973;DHT22;1496;51.404;7.232;2023-02-14T05:04:08;6.20;99.90
2973;DHT22;1496;51.404;7.232;2023-02-14T05:06:35;6.20;99.90
2973;DHT22;1496;51.404;7.232;2023-02-14T05:09:02;6.20;99.90
2973;DHT22;1496;51.404;7.232;2023-02-14T05:11:29;6.20;99.90
2973;DHT22;1496;51.404;7.232;2023-02-14T05:13:57;6.20;99.90
2973;DHT22;1496;51.404;7.232;2023-02-14T05:16:23;6.30;99.90
2973;DHT22;1496;51.404;7.232;2023-02-14T05:18:49;6.40;99.90
2973;DHT22;1496;51.404;7.232;2023-02-14T05:21:16;6.40;99.90
2973;DHT22;1496;51.404;7.232;2023-02-14T05:23:43;6.40;99.90
2973;DHT22;1496;51.404;7.232;2023-02-14T05:26:10;6.40;99.90
2973;DHT22;1496;51.404;7.232;2023-02-14T05:28:37;6.30;99.90
2973;DHT22;1496;51.404;7.232;2023-02-14T05:31:07;6.30;99.90
2973;DHT22;1496;51.404;7.232;2023-02-14T05:33:34;6.30;99.90
2973;DHT22;1496;51.404;7.232;2023-02-14T05:36:02;6.10;99.90
2973;DHT22;1496;51.404;7.232;2023-02-14T05:38:30;6.20;99.90
2973;DHT22;1496;51.404;7.232;2023-02-14T05:40:59;6.20;99.90
2973;DHT22;1496;51.404;7.232;2023-02-14T05:43:26;6.20;99.90
2973;DHT22;1496;51.404;7.232;2023-02-14T05:45:52;6.10;99.90
2973;DHT22;1496;51.404;7.232;2023-02-14T05:48:21;6.20;99.90
2973;DHT22;1496;51.404;7.232;2023-02-14T05:50:48;6.20;99.90
2973;DHT22;1496;51.404;7.232;2023-02-14T05:53:15;6.20;99.90
2973;DHT22;1496;51.404;7.232;2023-02-14T05:55:42;6.20;99.90
2973;DHT22;1496;51.404;7.232;2023-02-14T05:58:09;6.20;99.90
2973;DHT22;1496;51.404;7.232;2023-02-14T06:00:38;6.20;99.90
2973;DHT22;1496;51.404;7.232;2023-02-14T06:03:07;6.20;99.90
2973;DHT22;1496;51.404;7.232;2023-02-14T06:05:33;6.20;99.90
2973;DHT22;1496;51.404;7.232;2023-02-14T06:08:00;6.20;99.90
2973;DHT22;1496;51.404;7.232;2023-02-14T06:10:29;6.10;99.90
2973;DHT22;1496;51.404;7.232;2023-02-14T06:12:55;6.10;99.90
2973;DHT22;1496;51.404;7.232;2023-02-14T06:15:23;6.00;99.90
2973;DHT22;1496;51.404;7.232;2023-02-14T06:17:54;6.00;99.90
2973;DHT22;1496;51.404;7.232;2023-02-14T06:20:22;6.10;99.90
2973;DHT22;1496;51.404;7.232;2023-02-14T06:22:50;6.10;99.90
2973;DHT22;1496;51.404;7.232;2023-02-14T06:25:20;6.10;99.90
2973;DHT22;1496;51.404;7.232;2023-02-14T06:27:48;6.00;99.90
2973;DHT22;1496;51.404;7.232;2023-02-14T06:30:17;6.00;99.90
2973;DHT22;1496;51.404;7.232;2023-02-14T06:32:44;5.90;99.90
2973;DHT22;1496;51.404;7.232;2023-02-14T06:35:11;6.00;99.90
2973;DHT22;1496;51.404;7.232;2023-02-14T06:37:41;6.10;99.90
2973;DHT22;1496;51.404;7.232;2023-02-14T06:40:09;5.90;99.90
2973;DHT22;1496;51.404;7.232;2023-02-14T06:42:37;5.90;99.90
2973;DHT22;1496;51.404;7.232;2023-02-14T06:45:05;5.90;99.90
2973;DHT22;1496;51.404;7.232;2023-02-14T06:47:32;6.00;99.90
2973;DHT22;1496;51.404;7.232;2023-02-14T06:49:59;6.00;99.90
2973;DHT22;1496;51.404;7.232;2023-02-14T06:52:28;5.80;99.90
2973;DHT22;1496;51.404;7.232;2023-02-14T06:54:55;5.80;99.90
2973;DHT22;1496;51.404;7.232;2023-02-14T06:57:23;5.90;99.90
2973;DHT22;1496;51.404;7.232;2023-02-14T06:59:49;5.80;99.90
2973;DHT22;1496;51.404;7.232;2023-02-14T07:02:16;5.80;99.90
2973;DHT22;1496;51.404;7.232;2023-02-14T07:04:44;6.00;99.90
2973;DHT22;1496;51.404;7.232;2023-02-14T07:07:11;6.00;99.90
2973;DHT22;1496;51.404;7.232;2023-02-14T07:09:38;6.00;99.90
2973;DHT22;1496;51.404;7.232;2023-02-14T07:12:04;6.00;99.90
2973;DHT22;1496;51.404;7.232;2023-02-14T07:14:32;6.00;99.90
2973;DHT22;1496;51.404;7.232;2023-02-14T07:16:58;6.00;99.90
2973;DHT22;1496;51.404;7.232;2023-02-14T07:19:27;6.10;99.90
2973;DHT22;1496;51.404;7.232;2023-02-14T07:21:54;6.20;99.90
2973;DHT22;1496;51.404;7.232;2023-02-14T07:24:20;6.10;99.90
2973;DHT22;1496;51.404;7.232;2023-02-14T07:26:48;6.00;99.90
2973;DHT22;1496;51.404;7.232;2023-02-14T07:29:14;6.00;99.90
2973;DHT22;1496;51.404;7.232;2023-02-14T07:31:40;6.10;99.90
2973;DHT22;1496;51.404;7.232;2023-02-14T07:34:08;6.10;99.90
2973;DHT22;1496;51.404;7.232;2023-02-14T07:36:36;6.20;99.90
2973;DHT22;1496;51.404;7.232;2023-02-14T07:39:04;6.20;99.90
2973;DHT22;1496;51.404;7.232;2023-02-14T07:41:31;6.20;99.90
2973;DHT22;1496;51.404;7.232;2023-02-14T07:43:58;6.30;99.90
2973;DHT22;1496;51.404;7.232;2023-02-14T07:46:25;6.40;99.90
2973;DHT22;1496;51.404;7.232;2023-02-14T07:48:51;6.50;99.90
2973;DHT22;1496;51.404;7.232;2023-02-14T07:51:18;6.50;99.90
2973;DHT22;1496;51.404;7.232;2023-02-14T07:53:45;6.70;99.90
2973;DHT22;1496;51.404;7.232;2023-02-14T07:56:12;6.80;99.90
2973;DHT22;1496;51.404;7.232;2023-02-14T07:58:40;6.80;99.90
2973;DHT22;1496;51.404;7.232;2023-02-14T08:01:06;6.90;99.90
2973;DHT22;1496;51.404;7.232;2023-02-14T08:03:33;6.80;99.90
2973;DHT22;1496;51.404;7.232;2023-02-14T08:06:00;6.90;99.90
2973;DHT22;1496;51.404;7.232;2023-02-14T08:08:28;6.90;99.90
2973;DHT22;1496;51.404;7.232;2023-02-14T08:10:55;6.90;99.90
2973;DHT22;1496;51.404;7.232;2023-02-14T08:13:23;7.10;99.90
2973;DHT22;1496;51.404;7.232;2023-02-14T08:15:50;7.10;99.90
2973;DHT22;1496;51.404;7.232;2023-02-14T08:18:38;7.10;99.90
2973;DHT22;1496;51.404;7.232;2023-02-14T08:21:07;7.30;99.90
2973;DHT22;1496;51.404;7.232;2023-02-14T08:23:35;7.50;99.90
2973;DHT22;1496;51.404;7.232;2023-02-14T08:26:03;7.60;99.90
2973;DHT22;1496;51.404;7.232;2023-02-14T08:28:29;7.60;99.90
2973;DHT22;1496;51.404;7.232;2023-02-14T08:30:58;7.70;99.90
2973;DHT22;1496;51.404;7.232;2023-02-14T08:33:25;7.80;99.90
2973;DHT22;1496;51.404;7.232;2023-02-14T08:35:51;7.80;99.90
2973;DHT22;1496;51.404;7.232;2023-02-14T08:38:19;7.80;99.90
2973;DHT22;1496;51.404;7.232;2023-02-14T08:40:45;7.80;99.90
2973;DHT22;1496;51.404;7.232;2023-02-14T08:43:13;7.80;99.90
2973;DHT22;1496;51.404;7.232;2023-02-14T08:45:39;7.80;99.90
2973;DHT22;1496;51.404;7.232;2023-02-14T08:48:09;7.90;99.90
2973;DHT22;1496;51.404;7.232;2023-02-14T08:50:37;8.00;99.90
2973;DHT22;1496;51.404;7.232;2023-02-14T08:53:08;8.10;99.90
2973;DHT22;1496;51.404;7.232;2023-02-14T08:55:39;8.10;99.90
2973;DHT22;1496;51.404;7.232;2023-02-14T08:58:06;8.20;99.90
2973;DHT22;1496;51.404;7.232;2023-02-14T09:00:32;8.20;99.90
2973;DHT22;1496;51.404;7.232;2023-02-14T09:02:59;8.30;99.90
2973;DHT22;1496;51.404;7.232;2023-02-14T09:05:26;8.40;99.90
2973;DHT22;1496;51.404;7.232;2023-02-14T09:07:54;8.30;99.90
2973;DHT22;1496;51.404;7.232;2023-02-14T09:10:22;8.50;99.90
2973;DHT22;1496;51.404;7.232;2023-02-14T09:12:50;8.50;99.90
2973;DHT22;1496;51.404;7.232;2023-02-14T09:15:17;8.60;99.90
2973;DHT22;1496;51.404;7.232;2023-02-14T09:17:44;8.70;99.90
2973;DHT22;1496;51.404;7.232;2023-02-14T09:20:12;8.70;99.90
2973;DHT22;1496;51.404;7.232;2023-02-14T09:22:40;8.80;99.90
2973;DHT22;1496;51.404;7.232;2023-02-14T09:25:06;8.80;99.90
2973;DHT22;1496;51.404;7.232;2023-02-14T09:27:34;8.90;99.90
2973;DHT22;1496;51.404;7.232;2023-02-14T09:30:05;9.00;99.90
2973;DHT22;1496;51.404;7.232;2023-02-14T09:32:32;9.00;99.90
2973;DHT22;1496;51.404;7.232;2023-02-14T09:35:02;9.10;99.90
2973;DHT22;1496;51.404;7.232;2023-02-14T09:37:29;9.10;99.90
2973;DHT22;1496;51.404;7.232;2023-02-14T09:40:16;9.20;99.90
2973;DHT22;1496;51.404;7.232;2023-02-14T09:45:28;9.30;99.90
2973;DHT22;1496;51.404;7.232;2023-02-14T09:50:37;9.40;99.90
2973;DHT22;1496;51.404;7.232;2023-02-14T09:53:28;9.50;99.90
2973;DHT22;1496;51.404;7.232;2023-02-14T10:07:57;9.80;99.90
2973;DHT22;1496;51.404;7.232;2023-02-14T10:10:30;9.90;99.90
2973;DHT22;1496;51.404;7.232;2023-02-14T10:16:16;10.00;99.90
2973;DHT22;1496;51.404;7.232;2023-02-14T10:18:52;10.10;99.90
2973;DHT22;1496;51.404;7.232;2023-02-14T10:21:36;10.10;99.90
2973;DHT22;1496;51.404;7.232;2023-02-14T10:24:13;10.10;99.90
2973;DHT22;1496;51.404;7.232;2023-02-14T10:26:42;10.20;99.90
2973;DHT22;1496;51.404;7.232;2023-02-14T10:29:14;10.20;99.90
2973;DHT22;1496;51.404;7.232;2023-02-14T10:32:00;10.20;99.90
2973;DHT22;1496;51.404;7.232;2023-02-14T10:34:46;10.30;99.90
2973;DHT22;1496;51.404;7.232;2023-02-14T10:41:02;10.50;99.90
2973;DHT22;1496;51.404;7.232;2023-02-14T10:46:51;10.50;99.90
2973;DHT22;1496;51.404;7.232;2023-02-14T10:49:51;10.60;99.90
2973;DHT22;1496;51.404;7.232;2023-02-14T10:55:00;10.90;99.90
2973;DHT22;1496;51.404;7.232;2023-02-14T10:57:36;10.90;99.90
2973;DHT22;1496;51.404;7.232;2023-02-14T11:00:20;11.00;99.90
2973;DHT22;1496;51.404;7.232;2023-02-14T11:02:55;11.10;99.90
2973;DHT22;1496;51.404;7.232;2023-02-14T11:07:56;11.10;99.90
2973;DHT22;1496;51.404;7.232;2023-02-14T11:10:31;11.20;99.90
2973;DHT22;1496;51.404;7.232;2023-02-14T11:13:02;11.20;99.90
2973;DHT22;1496;51.404;7.232;2023-02-14T11:15:34;11.30;99.90
2973;DHT22;1496;51.404;7.232;2023-02-14T11:18:11;11.30;99.90
2973;DHT22;1496;51.404;7.232;2023-02-14T11:20:40;11.40;99.90
2973;DHT22;1496;51.404;7.232;2023-02-14T11:23:20;11.50;99.90
2973;DHT22;1496;51.404;7.232;2023-02-14T11:25:51;11.40;99.90
2973;DHT22;1496;51.404;7.232;2023-02-14T11:28:21;11.40;99.90
2973;DHT22;1496;51.404;7.232;2023-02-14T11:30:49;11.40;99.90
2973;DHT22;1496;51.404;7.232;2023-02-14T11:33:37;11.60;99.90
2973;DHT22;1496;51.404;7.232;2023-02-14T11:36:11;11.50;99.90
2973;DHT22;1496;51.404;7.232;2023-02-14T11:38:39;11.50;99.90
2973;DHT22;1496;51.404;7.232;2023-02-14T11:41:11;11.50;99.90
2973;DHT22;1496;51.404;7.232;2023-02-14T11:43:41;11.60;99.90
2973;DHT22;1496;51.404;7.232;2023-02-14T11:46:15;11.70;99.90
2973;DHT22;1496;51.404;7.232;2023-02-14T11:49:04;11.70;99.90
2973;DHT22;1496;51.404;7.232;2023-02-14T11:51:37;11.80;99.90
2973;DHT22;1496;51.404;7.232;2023-02-14T11:54:12;11.80;99.90
2973;DHT22;1496;51.404;7.232;2023-02-14T11:56:49;11.90;99.90
2973;DHT22;1496;51.404;7.232;2023-02-14T11:59:27;12.00;99.90
2973;DHT22;1496;51.404;7.232;2023-02-14T12:01:54;12.00;99.90
2973;DHT22;1496;51.404;7.232;2023-02-14T12:04:32;12.10;99.90
2973;DHT22;1496;51.404;7.232;2023-02-14T12:07:34;12.20;99.90
2973;DHT22;1496;51.404;7.232;2023-02-14T12:12:56;12.20;99.90
2973;DHT22;1496;51.404;7.232;2023-02-14T12:18:46;12.30;99.90
2973;DHT22;1496;51.404;7.232;2023-02-14T12:27:18;12.50;99.90
2973;DHT22;1496;51.404;7.232;2023-02-14T12:29:50;12.60;99.90
2973;DHT22;1496;51.404;7.232;2023-02-14T12:32:26;12.60;99.90
2973;DHT22;1496;51.404;7.232;2023-02-14T12:54:48;13.00;99.90
2973;DHT22;1496;51.404;7.232;2023-02-14T12:57:34;13.10;99.90
2973;DHT22;1496;51.404;7.232;2023-02-14T13:00:36;13.10;99.90
2973;DHT22;1496;51.404;7.232;2023-02-14T13:03:20;13.30;99.90
2973;DHT22;1496;51.404;7.232;2023-02-14T13:06:23;13.30;99.90
2973;DHT22;1496;51.404;7.232;2023-02-14T13:09:12;13.20;99.90
2973;DHT22;1496;51.404;7.232;2023-02-14T13:14:56;13.20;99.90
2973;DHT22;1496;51.404;7.232;2023-02-14T13:17:46;13.40;99.90
2973;DHT22;1496;51.404;7.232;2023-02-14T13:20:26;13.40;99.90
2973;DHT22;1496;51.404;7.232;2023-02-14T13:23:01;13.40;99.90
2973;DHT22;1496;51.404;7.232;2023-02-14T13:26:13;13.50;99.90
2973;DHT22;1496;51.404;7.232;2023-02-14T13:28:21;13.60;99.90
2973;DHT22;1496;51.404;7.232;2023-02-14T13:30:51;13.60;99.90
2973;DHT22;1496;51.404;7.232;2023-02-14T13:33:30;13.70;99.90
2973;DHT22;1496;51.404;7.232;2023-02-14T13:36:07;13.60;99.90
2973;DHT22;1496;51.404;7.232;2023-02-14T13:38:43;13.60;99.90
2973;DHT22;1496;51.404;7.232;2023-02-14T13:41:11;13.50;99.90
2973;DHT22;1496;51.404;7.232;2023-02-14T13:49:44;13.40;99.90
2973;DHT22;1496;51.404;7.232;2023-02-14T13:51:56;13.50;99.90
2973;DHT22;1496;51.404;7.232;2023-02-14T13:54:35;13.40;99.90
2973;DHT22;1496;51.404;7.232;2023-02-14T13:57:24;13.40;99.90
2973;DHT22;1496;51.404;7.232;2023-02-14T14:00:20;13.40;99.90
2973;DHT22;1496;51.404;7.232;2023-02-14T14:05:44;13.20;99.90
2973;DHT22;1496;51.404;7.232;2023-02-14T14:10:59;13.20;99.90
2973;DHT22;1496;51.404;7.232;2023-02-14T14:16:29;13.20;99.90
2973;DHT22;1496;51.404;7.232;2023-02-14T14:19:12;13.20;99.90
2973;DHT22;1496;51.404;7.232;2023-02-14T14:22:03;13.30;99.90
2973;DHT22;1496;51.404;7.232;2023-02-14T14:24:38;13.30;99.90
2973;DHT22;1496;51.404;7.232;2023-02-14T14:27:47;13.40;99.90
2973;DHT22;1496;51.404;7.232;2023-02-14T14:30:28;13.40;99.90
2973;DHT22;1496;51.404;7.232;2023-02-14T14:33:36;13.50;99.90
2973;DHT22;1496;51.404;7.232;2023-02-14T14:36:05;13.50;99.90
2973;DHT22;1496;51.404;7.232;2023-02-14T14:38:44;13.50;99.90
2973;DHT22;1496;51.404;7.232;2023-02-14T14:41:11;13.50;99.90
2973;DHT22;1496;51.404;7.232;2023-02-14T14:43:39;13.50;99.90
2973;DHT22;1496;51.404;7.232;2023-02-14T14:46:12;13.40;99.90
2973;DHT22;1496;51.404;7.232;2023-02-14T14:48:48;13.50;99.90
2973;DHT22;1496;51.404;7.232;2023-02-14T14:51:28;13.40;99.90
2973;DHT22;1496;51.404;7.232;2023-02-14T14:54:07;13.40;99.90
2973;DHT22;1496;51.404;7.232;2023-02-14T14:56:50;13.50;99.90
2973;DHT22;1496;51.404;7.232;2023-02-14T14:59:30;13.40;99.90
2973;DHT22;1496;51.404;7.232;2023-02-14T15:02:03;13.40;99.90
2973;DHT22;1496;51.404;7.232;2023-02-14T15:04:45;13.40;99.90
2973;DHT22;1496;51.404;7.232;2023-02-14T15:07:23;13.30;99.90
2973;DHT22;1496;51.404;7.232;2023-02-14T15:09:56;13.30;99.90
2973;DHT22;1496;51.404;7.232;2023-02-14T15:12:24;13.30;99.90
2973;DHT22;1496;51.404;7.232;2023-02-14T15:15:12;13.30;99.90
2973;DHT22;1496;51.404;7.232;2023-02-14T15:17:41;13.30;99.90
2973;DHT22;1496;51.404;7.232;2023-02-14T15:20:18;13.30;99.90
2973;DHT22;1496;51.404;7.232;2023-02-14T15:22:48;13.20;99.90
2973;DHT22;1496;51.404;7.232;2023-02-14T15:25:36;13.20;99.90
2973;DHT22;1496;51.404;7.232;2023-02-14T15:28:04;13.20;99.90
2973;DHT22;1496;51.404;7.232;2023-02-14T15:30:34;13.20;99.90
2973;DHT22;1496;51.404;7.232;2023-02-14T15:33:05;13.10;99.90
2973;DHT22;1496;51.404;7.232;2023-02-14T15:35:35;13.00;99.90
2973;DHT22;1496;51.404;7.232;2023-02-14T15:38:05;13.00;99.90
2973;DHT22;1496;51.404;7.232;2023-02-14T15:40:42;12.90;99.90
2973;DHT22;1496;51.404;7.232;2023-02-14T15:45:57;12.90;99.90
2973;DHT22;1496;51.404;7.232;2023-02-14T15:48:31;13.00;99.90
2973;DHT22;1496;51.404;7.232;2023-02-14T15:51:00;13.00;99.90
2973;DHT22;1496;51.404;7.232;2023-02-14T15:53:43;13.00;99.90
2973;DHT22;1496;51.404;7.232;2023-02-14T15:56:23;12.90;99.90
2973;DHT22;1496;51.404;7.232;2023-02-14T15:59:04;12.90;99.90
2973;DHT22;1496;51.404;7.232;2023-02-14T16:01:33;12.80;99.90
2973;DHT22;1496;51.404;7.232;2023-02-14T16:04:04;12.80;99.90
2973;DHT22;1496;51.404;7.232;2023-02-14T16:06:43;12.70;99.90
2973;DHT22;1496;51.404;7.232;2023-02-14T16:09:26;12.70;99.90
2973;DHT22;1496;51.404;7.232;2023-02-14T16:11:52;12.60;99.90
2973;DHT22;1496;51.404;7.232;2023-02-14T16:14:36;12.60;99.90
2973;DHT22;1496;51.404;7.232;2023-02-14T16:17:12;12.60;99.90
2973;DHT22;1496;51.404;7.232;2023-02-14T16:19:42;12.50;99.90
2973;DHT22;1496;51.404;7.232;2023-02-14T16:22:25;12.50;99.90
2973;DHT22;1496;51.404;7.232;2023-02-14T16:24:58;12.50;99.90
2973;DHT22;1496;51.404;7.232;2023-02-14T16:27:26;12.50;99.90
2973;DHT22;1496;51.404;7.232;2023-02-14T16:29:54;12.40;99.90
2973;DHT22;1496;51.404;7.232;2023-02-14T16:32:22;12.30;99.90
2973;DHT22;1496;51.404;7.232;2023-02-14T16:34:50;12.30;99.90
2973;DHT22;1496;51.404;7.232;2023-02-14T16:37:37;12.30;99.90
2973;DHT22;1496;51.404;7.232;2023-02-14T16:40:11;12.20;99.90
2973;DHT22;1496;51.404;7.232;2023-02-14T16:42:41;12.10;99.90
2973;DHT22;1496;51.404;7.232;2023-02-14T16:45:17;12.00;99.90
2973;DHT22;1496;51.404;7.232;2023-02-14T16:47:47;11.90;99.90
2973;DHT22;1496;51.404;7.232;2023-02-14T16:50:15;11.80;99.90
2973;DHT22;1496;51.404;7.232;2023-02-14T16:52:44;11.70;99.90
2973;DHT22;1496;51.404;7.232;2023-02-14T16:55:16;11.70;99.90
2973;DHT22;1496;51.404;7.232;2023-02-14T16:57:48;11.60;99.90
2973;DHT22;1496;51.404;7.232;2023-02-14T17:00:16;11.50;99.90
2973;DHT22;1496;51.404;7.232;2023-02-14T17:02:44;11.40;99.90
2973;DHT22;1496;51.404;7.232;2023-02-14T17:05:10;11.40;99.90
2973;DHT22;1496;51.404;7.232;2023-02-14T17:07:37;11.40;99.90
2973;DHT22;1496;51.404;7.232;2023-02-14T17:10:13;11.40;99.90
2973;DHT22;1496;51.404;7.232;2023-02-14T17:12:42;11.30;99.90
2973;DHT22;1496;51.404;7.232;2023-02-14T17:15:12;11.20;99.90
2973;DHT22;1496;51.404;7.232;2023-02-14T17:17:40;11.20;99.90
2973;DHT22;1496;51.404;7.232;2023-02-14T17:20:07;11.10;99.90
2973;DHT22;1496;51.404;7.232;2023-02-14T17:22:35;11.00;99.90
2973;DHT22;1496;51.404;7.232;2023-02-14T17:25:03;10.80;99.90
2973;DHT22;1496;51.404;7.232;2023-02-14T17:27:30;10.80;99.90
2973;DHT22;1496;51.404;7.232;2023-02-14T17:29:57;10.80;99.90
2973;DHT22;1496;51.404;7.232;2023-02-14T17:32:26;10.70;99.90
2973;DHT22;1496;51.404;7.232;2023-02-14T17:34:52;10.70;99.90
2973;DHT22;1496;51.404;7.232;2023-02-14T17:37:20;10.60;99.90
2973;DHT22;1496;51.404;7.232;2023-02-14T17:39:46;10.70;99.90
2973;DHT22;1496;51.404;7.232;2023-02-14T17:42:12;10.60;99.90
2973;DHT22;1496;51.404;7.232;2023-02-14T17:44:40;10.60;99.90
2973;DHT22;1496;51.404;7.232;2023-02-14T17:47:08;10.60;99.90
2973;DHT22;1496;51.404;7.232;2023-02-14T17:49:34;10.60;99.90
2973;DHT22;1496;51.404;7.232;2023-02-14T17:52:02;10.70;99.90
2973;DHT22;1496;51.404;7.232;2023-02-14T17:54:28;10.60;99.90
2973;DHT22;1496;51.404;7.232;2023-02-14T17:56:57;10.50;99.90
2973;DHT22;1496;51.404;7.232;2023-02-14T17:59:26;10.50;99.90
2973;DHT22;1496;51.404;7.232;2023-02-14T18:01:54;10.50;99.90
2973;DHT22;1496;51.404;7.232;2023-02-14T18:04:22;10.40;99.90
2973;DHT22;1496;51.404;7.232;2023-02-14T18:06:49;10.30;99.90
2973;DHT22;1496;51.404;7.232;2023-02-14T18:09:17;10.20;99.90
2973;DHT22;1496;51.404;7.232;2023-02-14T18:11:45;9.90;99.90
2973;DHT22;1496;51.404;7.232;2023-02-14T18:21:00;9.30;99.90
2973;DHT22;1496;51.404;7.232;2023-02-14T18:23:28;9.20;99.90
2973;DHT22;1496;51.404;7.232;2023-02-14T18:26:06;9.40;99.90
2973;DHT22;1496;51.404;7.232;2023-02-14T18:28:34;9.50;99.90
2973;DHT22;1496;51.404;7.232;2023-02-14T18:31:10;9.70;99.90
2973;DHT22;1496;51.404;7.232;2023-02-14T18:33:37;9.80;99.90
2973;DHT22;1496;51.404;7.232;2023-02-14T18:36:07;9.70;99.90
2973;DHT22;1496;51.404;7.232;2023-02-14T18:38:34;9.70;99.90
2973;DHT22;1496;51.404;7.232;2023-02-14T18:41:03;9.60;99.90
2973;DHT22;1496;51.404;7.232;2023-02-14T18:43:31;9.50;99.90
2973;DHT22;1496;51.404;7.232;2023-02-14T18:46:12;9.40;99.90
2973;DHT22;1496;51.404;7.232;2023-02-14T18:48:39;9.30;99.90
2973;DHT22;1496;51.404;7.232;2023-02-14T18:51:07;9.30;99.90
2973;DHT22;1496;51.404;7.232;2023-02-14T18:53:35;9.30;99.90
2973;DHT22;1496;51.404;7.232;2023-02-14T18:56:08;9.30;99.90
2973;DHT22;1496;51.404;7.232;2023-02-14T18:58:37;9.20;99.90